WXM80 ListenWXM80 Stop

You find our weather info also at:

UK Metoffice

WeatherCloud

Weather Underground

Northeastern Weather Network

AWEKAS

Citizen Weather Observer Program (CWOP)

HAMweather, WeatherForYou, PWS Weather


Weather Underground History page Text

Daily Summary for June 4, 2016 Units:  English    Metric   Both
« Previous Day
Next Day »
Daily Weekly Monthly Yearly Custom
  High: Low: Average:
Temperature: 85.6 °F 62.8 °F 72.5 °F
Dew Point: 72.1 °F 61.0 °F 65.6 °F
Humidity: 96 % 49 % 81 %
Wind Speed: 5.5 mph 0.0 mph 0.8 mph
Wind Gust: 8.1 mph - -
Wind:- - South
Pressure: 30.02 in 29.87 in -
Precipitation: 0.01 in    
Historical Graphs
 
 
Tabular Data for June 4, 2016
Time Temperature Dew Point Pressure Wind Wind Speed Wind Gust Humidity Rainfall Rate (Hourly)
00:05 62.8 °F 61.0 °F 30.02 in SSE 0.8 mph 1.2 mph 94 % 0.00 in
00:10 62.9 °F 61.1 °F 30.02 in Calm     94 % 0.00 in
00:15 62.9 °F 61.1 °F 30.02 in Calm     94 % 0.00 in
00:20 62.9 °F 61.1 °F 30.02 in SSE 0.1 mph 1.0 mph 94 % 0.00 in
00:30 63.0 °F 61.2 °F 30.01 in Calm     94 % 0.00 in
00:35 63.1 °F 61.3 °F 30.01 in Calm     94 % 0.00 in
00:40 63.1 °F 61.3 °F 30.01 in SSE 0.2 mph 1.2 mph 94 % 0.00 in
00:45 63.1 °F 61.3 °F 30.01 in Calm     94 % 0.00 in
00:51 63.2 °F 61.4 °F 30.01 in SSE 0.4 mph 2.3 mph 94 % 0.00 in
00:56 63.2 °F 61.4 °F 30.01 in Calm   1.2 mph 94 % 0.00 in
01:01 63.2 °F 61.4 °F 30.01 in Calm     94 % 0.00 in
01:06 63.2 °F 61.4 °F 30.01 in Calm     94 % 0.00 in
01:11 63.3 °F 61.5 °F 30.00 in SE 1.1 mph 2.3 mph 94 % 0.00 in
01:16 63.3 °F 61.5 °F 30.00 in SE 0.2 mph 1.2 mph 94 % 0.00 in
01:21 63.3 °F 61.5 °F 30.00 in SSW 0.2 mph 2.3 mph 94 % 0.00 in
01:26 63.4 °F 61.6 °F 30.00 in SSW 0.3 mph 1.2 mph 94 % 0.00 in
01:31 63.4 °F 61.6 °F 30.00 in Calm     94 % 0.00 in
01:36 63.4 °F 61.6 °F 30.00 in SSW 0.4 mph 1.0 mph 94 % 0.00 in
01:42 63.4 °F 61.6 °F 30.00 in Calm     94 % 0.00 in
01:47 63.5 °F 61.7 °F 30.00 in Calm     94 % 0.00 in
01:52 63.5 °F 61.7 °F 30.00 in SSW 0.6 mph 2.3 mph 94 % 0.00 in
01:57 63.6 °F 61.8 °F 30.00 in SSW 0.1 mph 2.3 mph 94 % 0.00 in
02:02 63.6 °F 61.8 °F 30.00 in SSW 0.1 mph 1.2 mph 94 % 0.00 in
02:07 63.6 °F 61.8 °F 30.00 in Calm     94 % 0.00 in
02:12 63.7 °F 61.9 °F 30.00 in Calm     94 % 0.00 in
02:22 63.7 °F 61.9 °F 30.00 in SSW 0.1 mph 1.2 mph 94 % 0.00 in
02:33 63.7 °F 61.6 °F 30.00 in Calm   1.2 mph 93 % 0.00 in
02:38 63.7 °F 61.6 °F 30.00 in Calm     93 % 0.00 in
02:43 63.7 °F 61.6 °F 30.00 in Calm     93 % 0.00 in
02:48 63.7 °F 61.6 °F 30.00 in Calm     93 % 0.00 in
02:53 63.7 °F 61.6 °F 29.99 in Calm     93 % 0.00 in
02:58 63.7 °F 61.6 °F 29.99 in Calm     93 % 0.00 in
03:03 63.7 °F 61.6 °F 29.98 in Calm     93 % 0.00 in
03:08 63.7 °F 61.6 °F 29.98 in Calm     93 % 0.00 in
03:13 63.7 °F 61.6 °F 29.99 in Calm     93 % 0.00 in
03:18 63.6 °F 61.5 °F 29.98 in Calm     93 % 0.00 in
03:24 63.6 °F 61.5 °F 29.98 in Calm     93 % 0.00 in
03:34 63.6 °F 61.5 °F 29.98 in Calm   1.2 mph 93 % 0.00 in
03:44 63.6 °F 61.5 °F 29.98 in Calm     93 % 0.00 in
03:54 63.6 °F 61.8 °F 29.98 in Calm     94 % 0.00 in
03:59 63.6 °F 61.8 °F 29.98 in SSW 0.3 mph 1.2 mph 94 % 0.00 in
04:04 63.6 °F 61.8 °F 29.98 in Calm     94 % 0.00 in
04:09 63.6 °F 61.8 °F 29.98 in Calm     94 % 0.00 in
04:15 63.6 °F 61.8 °F 29.98 in SSW 0.1 mph 2.3 mph 94 % 0.00 in
04:20 63.5 °F 61.7 °F 29.98 in Calm     94 % 0.00 in
04:25 63.5 °F 61.7 °F 29.98 in Calm     94 % 0.00 in
04:30 63.5 °F 61.7 °F 29.98 in Calm     94 % 0.00 in
04:35 63.5 °F 61.7 °F 29.98 in Calm     94 % 0.00 in
04:40 63.4 °F 61.6 °F 29.98 in Calm     94 % 0.00 in
04:45 63.4 °F 61.6 °F 29.98 in Calm     94 % 0.00 in
04:50 63.3 °F 61.5 °F 29.99 in Calm     94 % 0.00 in
04:55 63.3 °F 61.5 °F 29.99 in Calm     94 % 0.00 in
05:00 63.3 °F 61.5 °F 29.99 in Calm     94 % 0.00 in
05:06 63.4 °F 61.6 °F 29.99 in Calm     94 % 0.00 in
05:11 63.4 °F 61.9 °F 29.99 in Calm     95 % 0.00 in
05:16 63.5 °F 62.0 °F 29.99 in Calm     95 % 0.00 in
05:21 63.6 °F 62.1 °F 29.99 in Calm     95 % 0.00 in
05:26 63.6 °F 62.1 °F 29.99 in Calm     95 % 0.00 in
05:31 63.6 °F 62.1 °F 29.99 in Calm     95 % 0.00 in
05:36 63.6 °F 62.1 °F 29.99 in Calm     95 % 0.00 in
05:41 63.5 °F 62.0 °F 29.99 in Calm     95 % 0.00 in
05:46 63.5 °F 62.0 °F 29.99 in Calm     95 % 0.00 in
05:51 63.5 °F 62.0 °F 29.99 in Calm     95 % 0.00 in
05:57 63.5 °F 62.0 °F 29.99 in Calm     95 % 0.00 in
06:02 63.6 °F 62.1 °F 29.99 in Calm   1.2 mph 95 % 0.00 in
06:07 63.7 °F 62.2 °F 29.99 in SSW 0.9 mph 1.2 mph 95 % 0.00 in
06:12 63.8 °F 62.3 °F 29.99 in Calm     95 % 0.00 in
06:17 63.8 °F 62.3 °F 29.99 in Calm     95 % 0.00 in
06:22 63.9 °F 62.4 °F 29.99 in Calm     95 % 0.00 in
06:32 64.1 °F 62.6 °F 29.99 in Calm     95 % 0.00 in
06:37 64.3 °F 63.1 °F 29.99 in Calm     96 % 0.00 in
06:42 64.4 °F 63.2 °F 30.00 in Calm     96 % 0.00 in
06:48 64.5 °F 63.3 °F 30.00 in SSW 0.3 mph 2.0 mph 96 % 0.00 in
06:53 64.7 °F 63.5 °F 30.00 in Calm     96 % 0.00 in
06:58 64.8 °F 63.3 °F 30.00 in Calm     95 % 0.00 in
07:03 64.9 °F 63.7 °F 30.00 in Calm     96 % 0.00 in
07:08 65.0 °F 63.5 °F 30.00 in Calm     95 % 0.00 in
07:13 65.2 °F 63.7 °F 30.00 in Calm     95 % 0.00 in
07:18 65.4 °F 63.9 °F 30.00 in Calm     95 % 0.00 in
07:23 65.6 °F 63.8 °F 30.00 in Calm     94 % 0.00 in
07:28 65.8 °F 64.0 °F 30.00 in Calm     94 % 0.00 in
07:33 65.9 °F 64.1 °F 30.00 in Calm     94 % 0.00 in
07:39 66.1 °F 64.3 °F 30.00 in Calm     94 % 0.00 in
07:44 66.3 °F 64.5 °F 30.00 in Calm     94 % 0.00 in
07:54 66.6 °F 64.8 °F 30.00 in Calm     94 % 0.00 in
07:59 66.7 °F 64.9 °F 30.01 in SSW 0.1 mph 1.2 mph 94 % 0.00 in
08:04 66.8 °F 65.0 °F 30.00 in Calm     94 % 0.00 in
08:09 67.1 °F 65.0 °F 30.00 in SSW 0.1 mph   93 % 0.00 in
08:14 67.2 °F 65.4 °F 30.00 in SSW 0.6 mph 2.3 mph 94 % 0.00 in
08:19 67.4 °F 65.0 °F 30.00 in Calm     92 % 0.00 in
08:24 67.5 °F 65.1 °F 30.00 in Calm     92 % 0.00 in
08:30 67.7 °F 65.3 °F 30.00 in Calm     92 % 0.00 in
08:35 67.8 °F 65.1 °F 30.00 in Calm     91 % 0.00 in
08:40 67.9 °F 65.5 °F 30.00 in Calm     92 % 0.00 in
08:45 68.0 °F 65.3 °F 30.00 in Calm     91 % 0.00 in
08:50 68.2 °F 65.5 °F 30.00 in Calm     91 % 0.00 in
08:55 68.3 °F 65.3 °F 30.00 in Calm   1.2 mph 90 % 0.00 in
09:00 68.2 °F 64.8 °F 30.00 in Calm     89 % 0.00 in
09:05 68.3 °F 65.3 °F 30.00 in Calm   1.2 mph 90 % 0.00 in
09:10 68.4 °F 65.4 °F 30.00 in SE 0.3 mph 1.2 mph 90 % 0.00 in
09:15 68.5 °F 65.1 °F 30.00 in East 0.8 mph 2.3 mph 89 % 0.00 in
09:21 68.7 °F 65.3 °F 30.00 in East 0.5 mph 1.2 mph 89 % 0.00 in
09:26 68.8 °F 65.1 °F 30.00 in ENE 1.5 mph 3.5 mph 88 % 0.00 in
09:31 68.9 °F 65.2 °F 30.00 in ENE 1.1 mph 2.3 mph 88 % 0.00 in
09:36 69.1 °F 65.7 °F 30.00 in Calm   2.3 mph 89 % 0.00 in
09:41 69.2 °F 65.5 °F 29.99 in ENE 0.3 mph 1.2 mph 88 % 0.00 in
09:46 69.4 °F 65.7 °F 30.00 in ENE 0.2 mph 1.2 mph 88 % 0.00 in
09:51 69.9 °F 66.2 °F 29.99 in ENE 0.8 mph 2.3 mph 88 % 0.00 in
09:56 70.6 °F 66.9 °F 29.99 in ENE 0.5 mph 1.2 mph 88 % 0.00 in
10:01 71.3 °F 67.6 °F 29.98 in ENE 0.1 mph 1.2 mph 88 % 0.00 in
10:06 72.6 °F 68.8 °F 29.98 in ENE 0.4 mph 1.2 mph 88 % 0.00 in
10:12 73.5 °F 68.0 °F 29.98 in Calm   2.3 mph 83 % 0.00 in
10:17 74.1 °F 69.0 °F 29.98 in Calm     84 % 0.00 in
10:22 74.6 °F 68.7 °F 29.98 in ENE 0.4 mph 3.5 mph 82 % 0.00 in
10:27 75.0 °F 69.1 °F 29.98 in Calm   1.2 mph 82 % 0.00 in
10:32 75.7 °F 70.5 °F 29.98 in Calm   1.0 mph 84 % 0.00 in
10:37 76.4 °F 69.4 °F 29.98 in SW 2.7 mph 4.6 mph 79 % 0.00 in
10:42 77.0 °F 69.6 °F 29.98 in WSW 3.4 mph 4.6 mph 78 % 0.00 in
10:48 77.9 °F 70.9 °F 29.98 in SW 1.1 mph 3.0 mph 79 % 0.00 in
10:58 79.1 °F 70.9 °F 29.98 in West 2.8 mph 4.6 mph 76 % 0.00 in
11:03 79.4 °F 70.4 °F 29.97 in WNW 2.2 mph 3.5 mph 74 % 0.00 in
11:09 80.1 °F 70.7 °F 29.97 in WNW 1.1 mph 3.5 mph 73 % 0.00 in
11:14 80.2 °F 69.9 °F 29.98 in NW 3.3 mph 3.5 mph 71 % 0.00 in
11:19 80.3 °F 70.4 °F 29.98 in NW 1.6 mph 4.6 mph 72 % 0.00 in
11:24 80.3 °F 69.6 °F 29.98 in WSW 0.8 mph 4.0 mph 70 % 0.00 in
11:29 80.3 °F 69.6 °F 29.98 in WSW 2.1 mph 3.5 mph 70 % 0.00 in
11:34 80.3 °F 70.0 °F 29.97 in WNW 2.7 mph 4.6 mph 71 % 0.00 in
11:39 80.5 °F 71.4 °F 29.97 in NW 1.5 mph 2.3 mph 74 % 0.00 in
11:44 80.6 °F 70.3 °F 29.97 in NW 2.0 mph 3.5 mph 71 % 0.00 in
11:49 81.0 °F 71.9 °F 29.97 in NW 0.9 mph 3.5 mph 74 % 0.00 in
11:54 81.6 °F 72.1 °F 29.97 in NW 3.8 mph 3.8 mph 73 % 0.00 in
12:00 82.0 °F 70.8 °F 29.97 in NNW 3.3 mph 4.6 mph 69 % 0.00 in
12:10 81.9 °F 70.7 °F 29.97 in NNE 3.8 mph 5.0 mph 69 % 0.00 in
12:15 82.0 °F 70.4 °F 29.96 in NNW 1.8 mph 3.5 mph 68 % 0.00 in
12:20 82.1 °F 70.5 °F 29.96 in NW 1.7 mph 3.5 mph 68 % 0.00 in
12:25 82.6 °F 70.5 °F 29.96 in NW 1.8 mph 5.8 mph 67 % 0.00 in
12:30 82.9 °F 71.7 °F 29.96 in North 2.8 mph 4.0 mph 69 % 0.00 in
12:35 83.3 °F 72.1 °F 29.96 in NNE 3.0 mph 5.8 mph 69 % 0.00 in
12:40 83.7 °F 71.6 °F 29.96 in NNE 3.9 mph 5.8 mph 67 % 0.00 in
12:46 83.8 °F 71.2 °F 29.96 in North 3.1 mph 5.0 mph 66 % 0.00 in
12:51 83.7 °F 70.2 °F 29.95 in WNW 1.5 mph 3.5 mph 64 % 0.00 in
12:56 83.6 °F 71.5 °F 29.95 in NW 1.1 mph 3.5 mph 67 % 0.00 in
13:01 83.4 °F 71.3 °F 29.95 in West 0.8 mph 3.0 mph 67 % 0.00 in
13:06 83.0 °F 70.5 °F 29.95 in NW 2.1 mph 3.5 mph 66 % 0.00 in
13:11 82.8 °F 70.3 °F 29.95 in WNW 2.7 mph 4.6 mph 66 % 0.00 in
13:16 82.9 °F 71.3 °F 29.95 in WNW 2.4 mph 4.6 mph 68 % 0.00 in
13:21 83.2 °F 69.8 °F 29.95 in WNW 5.5 mph 8.1 mph 64 % 0.00 in
13:26 83.6 °F 71.9 °F 29.94 in NW 2.1 mph 4.6 mph 68 % 0.00 in
13:31 84.0 °F 71.4 °F 29.94 in North 2.6 mph 4.6 mph 66 % 0.00 in
13:37 84.5 °F 71.0 °F 29.94 in WNW 1.5 mph 3.5 mph 64 % 0.00 in
13:42 84.7 °F 70.7 °F 29.94 in NNW 1.8 mph 6.9 mph 63 % 0.00 in
13:47 84.9 °F 71.4 °F 29.94 in North 2.2 mph 3.5 mph 64 % 0.00 in
13:52 84.8 °F 70.3 °F 29.94 in North 2.3 mph 3.5 mph 62 % 0.00 in
13:57 84.3 °F 68.9 °F 29.94 in North 1.2 mph 2.3 mph 60 % 0.00 in
14:02 83.9 °F 69.5 °F 29.94 in NW 0.8 mph 3.0 mph 62 % 0.00 in
14:07 83.8 °F 71.2 °F 29.93 in West 0.8 mph 2.3 mph 66 % 0.00 in
14:17 83.9 °F 70.0 °F 29.92 in NW 3.4 mph 4.0 mph 63 % 0.00 in
14:28 84.2 °F 68.8 °F 29.92 in NW 2.7 mph 3.5 mph 60 % 0.00 in
14:33 84.4 °F 69.0 °F 29.92 in NW 2.1 mph 4.6 mph 60 % 0.00 in
14:38 84.5 °F 68.6 °F 29.92 in WNW 1.0 mph 3.5 mph 59 % 0.00 in
14:43 84.6 °F 68.2 °F 29.92 in NW 1.5 mph 3.5 mph 58 % 0.00 in
14:48 84.7 °F 68.8 °F 29.92 in NW 0.4 mph 2.3 mph 59 % 0.00 in
14:53 84.8 °F 68.9 °F 29.92 in North 2.2 mph 5.0 mph 59 % 0.00 in
14:58 84.6 °F 68.7 °F 29.92 in North 1.8 mph 2.3 mph 59 % 0.00 in
15:03 84.8 °F 67.9 °F 29.92 in NW 1.6 mph 2.0 mph 57 % 0.00 in
15:08 84.8 °F 66.8 °F 29.92 in NW 1.2 mph 2.3 mph 55 % 0.00 in
15:13 84.9 °F 67.5 °F 29.91 in NNE 1.1 mph 3.5 mph 56 % 0.00 in
15:19 85.0 °F 66.5 °F 29.91 in NNE 3.4 mph 4.6 mph 54 % 0.00 in
15:24 85.1 °F 66.0 °F 29.91 in NNW 1.3 mph 3.5 mph 53 % 0.00 in
15:29 85.2 °F 65.6 °F 29.91 in NNE 4.1 mph 4.6 mph 52 % 0.00 in
15:34 84.9 °F 65.9 °F 29.91 in NNW 2.8 mph 4.6 mph 53 % 0.00 in
15:44 85.6 °F 64.2 °F 29.91 in NW 1.5 mph 3.5 mph 49 % 0.00 in
15:49 85.5 °F 65.9 °F 29.90 in North 3.4 mph 5.0 mph 52 % 0.00 in
15:59 84.8 °F 67.4 °F 29.90 in ENE 0.1 mph 2.3 mph 56 % 0.00 in
16:04 84.2 °F 64.1 °F 29.89 in ENE 1.8 mph 3.5 mph 51 % 0.00 in
16:10 84.0 °F 65.0 °F 29.90 in ENE 0.5 mph 2.3 mph 53 % 0.00 in
16:15 84.0 °F 63.9 °F 29.89 in NE 2.7 mph 3.5 mph 51 % 0.00 in
16:20 83.8 °F 64.3 °F 29.89 in NE 1.9 mph 3.5 mph 52 % 0.00 in
16:25 83.7 °F 64.2 °F 29.88 in NNE 1.8 mph 4.0 mph 52 % 0.00 in
16:30 83.6 °F 66.2 °F 29.89 in Calm   1.0 mph 56 % 0.00 in
16:35 83.6 °F 65.2 °F 29.89 in NE 1.8 mph 3.5 mph 54 % 0.00 in
16:40 83.5 °F 65.1 °F 29.89 in ENE 1.4 mph 3.5 mph 54 % 0.00 in
16:50 83.7 °F 65.3 °F 29.89 in NNE 2.3 mph 4.6 mph 54 % 0.00 in
16:55 83.6 °F 65.7 °F 29.89 in NNE 0.9 mph 2.3 mph 55 % 0.00 in
17:01 83.4 °F 65.0 °F 29.88 in ENE 1.9 mph 4.6 mph 54 % 0.00 in
17:06 83.1 °F 65.3 °F 29.88 in North 3.3 mph 4.0 mph 55 % 0.00 in
17:11 82.8 °F 65.5 °F 29.88 in NE 0.1 mph 2.3 mph 56 % 0.00 in
17:16 82.5 °F 64.7 °F 29.88 in Calm     55 % 0.00 in
17:21 82.3 °F 64.5 °F 29.88 in NE 0.7 mph 2.3 mph 55 % 0.00 in
17:26 81.9 °F 65.7 °F 29.88 in NE 1.4 mph 2.3 mph 58 % 0.00 in
17:31 81.3 °F 65.6 °F 29.87 in NE 1.6 mph 3.5 mph 59 % 0.00 in
17:36 80.9 °F 66.7 °F 29.87 in NE 0.2 mph 1.0 mph 62 % 0.00 in
17:41 80.6 °F 66.8 °F 29.87 in Calm     63 % 0.00 in
17:46 80.3 °F 67.0 °F 29.87 in NE 0.1 mph 1.0 mph 64 % 0.00 in
17:57 80.2 °F 69.1 °F 29.87 in South 0.5 mph 2.3 mph 69 % 0.00 in
18:02 80.0 °F 69.3 °F 29.87 in SW 0.6 mph 3.0 mph 70 % 0.00 in
18:07 80.0 °F 69.3 °F 29.87 in SW 0.3 mph 2.3 mph 70 % 0.00 in
18:12 80.0 °F 69.3 °F 29.87 in SW 0.3 mph 1.2 mph 70 % 0.00 in
18:17 79.9 °F 69.7 °F 29.87 in SW 0.7 mph 5.0 mph 71 % 0.00 in
18:22 79.8 °F 69.6 °F 29.87 in SSW 0.2 mph 1.2 mph 71 % 0.00 in
18:27 79.6 °F 69.0 °F 29.88 in SE 0.6 mph 3.5 mph 70 % 0.00 in
18:37 78.7 °F 68.5 °F 29.88 in SSE 0.2 mph 2.3 mph 71 % 0.00 in
18:43 78.5 °F 68.3 °F 29.89 in SSE 0.3 mph 1.2 mph 71 % 0.00 in
18:48 78.2 °F 68.4 °F 29.89 in SSE 1.6 mph 3.5 mph 72 % 0.00 in
18:53 77.9 °F 68.5 °F 29.89 in SE 1.1 mph 3.5 mph 73 % 0.00 in
18:58 77.6 °F 68.3 °F 29.89 in South 2.5 mph 7.0 mph 73 % 0.00 in
19:03 77.0 °F 68.1 °F 29.90 in SE 2.1 mph 3.5 mph 74 % 0.00 in
19:08 76.6 °F 67.7 °F 29.89 in SE 2.2 mph 4.6 mph 74 % 0.00 in
19:13 76.2 °F 67.7 °F 29.89 in SE 0.2 mph 4.6 mph 75 % 0.00 in
19:18 75.8 °F 67.7 °F 29.89 in SSE 0.1 mph 2.0 mph 76 % 0.00 in
19:23 75.6 °F 67.5 °F 29.89 in SW 1.1 mph 4.0 mph 76 % 0.00 in
19:28 75.4 °F 67.3 °F 29.90 in South 0.1 mph 1.2 mph 76 % 0.00 in
19:34 75.2 °F 67.5 °F 29.90 in SSE 0.1 mph 2.3 mph 77 % 0.00 in
19:39 74.8 °F 67.1 °F 29.90 in SSE 0.1 mph 4.6 mph 77 % 0.00 in
19:44 74.6 °F 67.3 °F 29.90 in SSE 2.3 mph 4.0 mph 78 % 0.00 in
19:54 74.0 °F 66.7 °F 29.90 in SSE 2.9 mph 6.9 mph 78 % 0.00 in
19:59 73.6 °F 66.7 °F 29.90 in SE 3.0 mph 5.0 mph 79 % 0.00 in
20:04 73.2 °F 66.3 °F 29.90 in SE 0.6 mph 3.0 mph 79 % 0.00 in
20:09 72.9 °F 66.4 °F 29.90 in SSW 2.0 mph 3.5 mph 80 % 0.00 in
20:19 72.5 °F 66.0 °F 29.91 in SW 1.3 mph 3.5 mph 80 % 0.00 in
20:25 72.4 °F 66.2 °F 29.91 in SW 1.8 mph 3.5 mph 81 % 0.00 in
20:30 72.3 °F 66.1 °F 29.91 in SW 2.5 mph 3.5 mph 81 % 0.00 in
20:35 72.1 °F 65.9 °F 29.91 in WSW 0.5 mph 3.5 mph 81 % 0.00 in
20:40 72.0 °F 65.8 °F 29.91 in WSW 2.5 mph 5.0 mph 81 % 0.00 in
20:45 71.8 °F 66.0 °F 29.91 in South 1.1 mph 4.0 mph 82 % 0.00 in
20:50 71.7 °F 65.9 °F 29.91 in SSW 1.2 mph 3.5 mph 82 % 0.00 in
20:55 71.5 °F 65.7 °F 29.91 in South 1.5 mph 4.6 mph 82 % 0.00 in
21:00 71.4 °F 65.6 °F 29.91 in SW 1.0 mph 3.5 mph 82 % 0.00 in
21:05 71.3 °F 65.5 °F 29.91 in SW 1.1 mph 3.5 mph 82 % 0.00 in
21:10 71.2 °F 65.8 °F 29.91 in SSW 0.3 mph 2.3 mph 83 % 0.00 in
21:16 71.0 °F 65.6 °F 29.92 in SW 0.3 mph 3.5 mph 83 % 0.00 in
21:21 71.0 °F 65.6 °F 29.91 in SW 0.4 mph 2.3 mph 83 % 0.00 in
21:26 70.8 °F 65.4 °F 29.91 in SSE 1.0 mph 5.8 mph 83 % 0.00 in
21:31 70.8 °F 65.4 °F 29.92 in WSW 1.7 mph 4.6 mph 83 % 0.00 in
21:36 70.6 °F 65.2 °F 29.91 in ESE 0.1 mph   83 % 0.00 in
21:41 70.5 °F 65.1 °F 29.92 in SW 0.2 mph 1.2 mph 83 % 0.00 in
21:46 70.5 °F 65.1 °F 29.91 in SW 0.9 mph 1.2 mph 83 % 0.00 in
21:56 70.3 °F 65.2 °F 29.91 in Calm   2.3 mph 84 % 0.00 in
22:01 70.3 °F 65.2 °F 29.92 in Calm   3.5 mph 84 % 0.00 in
22:07 70.2 °F 65.1 °F 29.91 in SE 1.3 mph 2.0 mph 84 % 0.00 in
22:12 70.1 °F 65.0 °F 29.91 in Calm   2.3 mph 84 % 0.00 in
22:17 70.1 °F 65.0 °F 29.92 in ESE 0.3 mph 2.3 mph 84 % 0.00 in
22:22 70.0 °F 64.9 °F 29.92 in Calm   1.2 mph 84 % 0.00 in
22:27 70.0 °F 64.9 °F 29.92 in WSW 1.3 mph 5.0 mph 84 % 0.00 in
22:32 69.9 °F 64.8 °F 29.92 in WSW 0.4 mph 2.3 mph 84 % 0.00 in
22:37 69.9 °F 65.2 °F 29.92 in SW 2.0 mph 3.5 mph 85 % 0.00 in
22:42 69.8 °F 65.1 °F 29.92 in Calm   1.0 mph 85 % 0.00 in
22:47 69.7 °F 65.3 °F 29.92 in Calm   1.2 mph 86 % 0.00 in
22:52 69.7 °F 65.3 °F 29.92 in Calm   2.3 mph 86 % 0.00 in
22:58 69.6 °F 65.6 °F 29.92 in SW 0.1 mph 1.0 mph 87 % 0.00 in
23:03 69.4 °F 65.4 °F 29.92 in SW 0.1 mph 1.2 mph 87 % 0.00 in
23:08 69.3 °F 65.3 °F 29.91 in Calm     87 % 0.00 in
23:13 69.1 °F 65.4 °F 29.91 in Calm     88 % 0.00 in
23:18 68.9 °F 65.2 °F 29.91 in SE 0.1 mph 1.2 mph 88 % 0.00 in
23:23 68.7 °F 65.0 °F 29.90 in SE 0.1 mph 1.0 mph 88 % 0.01 in
23:28 68.5 °F 64.8 °F 29.91 in SSW 0.1 mph 1.2 mph 88 % 0.01 in
23:33 68.4 °F 64.7 °F 29.91 in South 0.2 mph 1.2 mph 88 % 0.01 in
23:38 68.2 °F 64.8 °F 29.91 in Calm   2.3 mph 89 % 0.01 in
23:43 68.0 °F 64.6 °F 29.91 in Calm   2.3 mph 89 % 0.01 in
23:54 67.7 °F 64.0 °F 29.91 in Calm     88 % 0.01 in
23:59 67.5 °F 63.5 °F 29.91 in Calm   1.0 mph 87 % 0.01 in
Crab Meadow Weather
Compliments of Weather Underground - 2.75 mb

Script developed by  Jim McMurry - jmcmurry@mwt.net Adapted for the template by  Wim van der Kuil - Leuven-Template.eu

Recycling: Americans threw away 38 billion plastic water bottles in 2006. A million and a half barrels of oil - enough to fuel 100,000 cars for a year - were used to produce the bottles.